createdAt,value
2022-10-13T00:01:20.571Z,100.00
2022-10-13T00:03:50.101Z,100.00
2022-10-13T00:06:25.559Z,100.00
2022-10-13T00:08:54.794Z,100.00
2022-10-13T00:11:28.357Z,100.00
2022-10-13T00:14:00.881Z,100.00
2022-10-13T00:16:31.735Z,100.00
2022-10-13T00:19:00.179Z,100.00
2022-10-13T00:21:28.653Z,100.00
2022-10-13T00:23:57.234Z,100.00
2022-10-13T00:26:26.714Z,100.00
2022-10-13T00:28:56.473Z,100.00
2022-10-13T00:31:30.154Z,100.00
2022-10-13T00:34:00.054Z,100.00
2022-10-13T00:36:29.474Z,100.00
2022-10-13T00:38:58.428Z,100.00
2022-10-13T00:41:27.709Z,100.00
2022-10-13T00:44:06.646Z,100.00
2022-10-13T00:46:37.379Z,100.00
2022-10-13T00:49:09.777Z,100.00
2022-10-13T00:51:42.426Z,100.00
2022-10-13T00:54:14.000Z,100.00
2022-10-13T00:56:43.541Z,100.00
2022-10-13T00:59:22.993Z,100.00
2022-10-13T01:01:55.108Z,100.00
2022-10-13T01:04:28.249Z,100.00
2022-10-13T01:06:58.481Z,100.00
2022-10-13T01:09:26.798Z,100.00
2022-10-13T01:12:20.905Z,100.00
2022-10-13T01:15:10.592Z,100.00
2022-10-13T01:18:06.443Z,100.00
2022-10-13T01:20:37.955Z,100.00
2022-10-13T01:23:33.403Z,100.00
2022-10-13T01:26:23.133Z,100.00
2022-10-13T01:29:12.172Z,100.00
2022-10-13T01:32:07.910Z,100.00
2022-10-13T01:35:11.519Z,100.00
2022-10-13T01:38:01.442Z,100.00
2022-10-13T01:40:38.419Z,100.00
2022-10-13T01:43:28.662Z,100.00
2022-10-13T01:46:12.681Z,100.00
2022-10-13T01:48:44.678Z,100.00
2022-10-13T01:51:17.778Z,100.00
2022-10-13T01:53:47.728Z,100.00
2022-10-13T01:56:16.815Z,100.00
2022-10-13T01:58:47.453Z,100.00
2022-10-13T02:01:36.085Z,100.00
2022-10-13T02:04:04.686Z,100.00
2022-10-13T02:06:35.173Z,100.00
2022-10-13T02:09:27.087Z,100.00
2022-10-13T02:12:00.421Z,100.00
2022-10-13T02:14:34.916Z,100.00
2022-10-13T02:17:05.514Z,100.00
2022-10-13T02:19:39.196Z,100.00
2022-10-13T02:22:09.862Z,100.00
2022-10-13T02:24:37.984Z,100.00
2022-10-13T02:27:07.689Z,100.00
2022-10-13T02:29:49.750Z,100.00
2022-10-13T02:32:18.145Z,100.00
2022-10-13T02:34:46.812Z,100.00
2022-10-13T02:37:14.920Z,100.00
2022-10-13T02:39:43.223Z,100.00
2022-10-13T02:42:13.204Z,100.00
2022-10-13T02:44:41.264Z,100.00
2022-10-13T02:47:09.602Z,100.00
2022-10-13T02:49:38.495Z,100.00
2022-10-13T02:52:06.526Z,100.00
2022-10-13T02:54:35.080Z,100.00
2022-10-13T02:57:03.545Z,100.00
2022-10-13T02:59:31.726Z,100.00
2022-10-13T03:02:00.077Z,100.00
2022-10-13T03:04:29.851Z,100.00
2022-10-13T03:07:00.648Z,100.00
2022-10-13T03:09:29.019Z,100.00
2022-10-13T03:11:57.659Z,100.00
2022-10-13T03:14:26.236Z,100.00
2022-10-13T03:16:54.529Z,100.00
2022-10-13T03:19:22.742Z,100.00
2022-10-13T03:21:51.109Z,100.00
2022-10-13T03:24:19.588Z,100.00
2022-10-13T03:26:47.643Z,100.00
2022-10-13T03:29:18.695Z,100.00
2022-10-13T03:31:47.106Z,100.00
2022-10-13T03:34:16.748Z,100.00
2022-10-13T03:36:44.965Z,100.00
2022-10-13T03:39:13.819Z,100.00
2022-10-13T03:41:42.217Z,100.00
2022-10-13T03:44:13.645Z,100.00
2022-10-13T03:46:42.390Z,100.00
2022-10-13T03:49:12.133Z,100.00
2022-10-13T03:51:40.311Z,100.00
2022-10-13T03:54:12.530Z,100.00
2022-10-13T03:56:41.031Z,100.00
2022-10-13T03:59:12.625Z,100.00
2022-10-13T04:01:40.892Z,100.00
2022-10-13T04:04:11.553Z,100.00
2022-10-13T04:06:43.238Z,100.00
2022-10-13T04:09:11.878Z,100.00
2022-10-13T04:11:39.976Z,100.00
2022-10-13T04:14:08.320Z,100.00
2022-10-13T04:16:36.713Z,100.00
2022-10-13T04:19:06.247Z,100.00
2022-10-13T04:21:35.252Z,100.00
2022-10-13T04:24:05.540Z,100.00
2022-10-13T04:26:36.192Z,100.00
2022-10-13T04:29:09.971Z,100.00
2022-10-13T04:31:40.269Z,100.00
2022-10-13T04:34:08.682Z,100.00
2022-10-13T04:36:36.971Z,100.00
2022-10-13T04:39:05.170Z,100.00
2022-10-13T04:41:34.271Z,100.00
2022-10-13T04:44:02.644Z,100.00
2022-10-13T04:46:30.878Z,100.00
2022-10-13T04:48:59.271Z,100.00
2022-10-13T04:51:30.315Z,100.00
2022-10-13T04:54:05.639Z,100.00
2022-10-13T04:56:33.799Z,100.00
2022-10-13T04:59:05.900Z,100.00
2022-10-13T05:01:36.064Z,100.00
2022-10-13T05:04:10.853Z,100.00
2022-10-13T05:07:05.438Z,100.00
2022-10-13T05:09:30.172Z,100.00
2022-10-13T05:11:58.395Z,100.00
2022-10-13T05:14:26.687Z,100.00
2022-10-13T05:16:55.193Z,100.00
2022-10-13T05:19:24.084Z,100.00
2022-10-13T05:21:53.031Z,100.00
2022-10-13T05:24:31.276Z,100.00
2022-10-13T05:26:59.566Z,100.00
2022-10-13T05:29:28.053Z,100.00
2022-10-13T05:31:56.076Z,100.00
2022-10-13T05:34:24.055Z,100.00
2022-10-13T05:36:52.482Z,100.00
2022-10-13T05:39:20.877Z,100.00
2022-10-13T05:41:48.874Z,100.00
2022-10-13T05:44:22.155Z,100.00
2022-10-13T05:46:51.805Z,100.00
2022-10-13T05:49:20.049Z,100.00
2022-10-13T05:51:53.093Z,100.00
2022-10-13T05:54:31.114Z,100.00
2022-10-13T05:57:13.042Z,100.00
2022-10-13T05:59:46.297Z,100.00
2022-10-13T06:02:18.197Z,100.00
2022-10-13T06:04:51.045Z,100.00
2022-10-13T06:07:19.835Z,100.00
2022-10-13T06:09:49.695Z,100.00
2022-10-13T06:12:17.963Z,100.00
2022-10-13T06:14:46.674Z,100.00
2022-10-13T06:17:16.062Z,100.00
2022-10-13T06:19:45.443Z,100.00
2022-10-13T06:22:13.789Z,100.00
2022-10-13T06:24:42.522Z,100.00
2022-10-13T06:27:11.462Z,100.00
2022-10-13T06:29:39.868Z,100.00
2022-10-13T06:32:08.355Z,100.00
2022-10-13T06:34:36.430Z,100.00
2022-10-13T06:37:04.909Z,100.00
2022-10-13T06:39:33.787Z,100.00
2022-10-13T06:42:04.226Z,100.00
2022-10-13T06:44:33.344Z,100.00
2022-10-13T06:47:04.258Z,100.00
2022-10-13T06:49:32.335Z,100.00
2022-10-13T06:52:01.400Z,100.00
2022-10-13T06:54:30.163Z,100.00
2022-10-13T06:56:58.222Z,100.00
2022-10-13T06:59:27.855Z,100.00
2022-10-13T07:01:56.505Z,100.00
2022-10-13T07:04:25.916Z,100.00
2022-10-13T07:06:56.304Z,100.00
2022-10-13T07:09:24.926Z,100.00
2022-10-13T07:11:52.973Z,100.00
2022-10-13T07:14:21.149Z,100.00
2022-10-13T07:16:49.563Z,100.00
2022-10-13T07:19:17.706Z,100.00
2022-10-13T07:21:45.886Z,100.00
2022-10-13T07:24:14.327Z,100.00
2022-10-13T07:26:45.232Z,100.00
2022-10-13T07:29:13.742Z,100.00
2022-10-13T07:31:44.002Z,100.00
2022-10-13T07:34:12.694Z,100.00
2022-10-13T07:36:41.928Z,100.00
2022-10-13T07:39:10.070Z,100.00
2022-10-13T07:41:38.137Z,98.13
2022-10-13T07:44:06.707Z,100.00
2022-10-13T07:46:34.843Z,99.42
2022-10-13T07:49:03.019Z,98.01
2022-10-13T07:51:31.701Z,95.55
2022-10-13T07:53:59.837Z,94.69
2022-10-13T07:56:27.934Z,95.41
2022-10-13T07:58:57.611Z,90.88
2022-10-13T08:01:28.242Z,91.79
2022-10-13T08:03:56.879Z,91.26
2022-10-13T08:06:26.466Z,92.72
2022-10-13T08:08:57.665Z,93.00
2022-10-13T08:11:27.488Z,91.35
2022-10-13T08:13:56.070Z,93.10
2022-10-13T08:16:32.014Z,93.49
2022-10-13T08:19:08.957Z,93.21
2022-10-13T08:24:30.860Z,91.94
2022-10-13T08:27:00.046Z,90.95
2022-10-13T08:29:28.306Z,90.60
2022-10-13T08:31:56.634Z,88.91
2022-10-13T08:34:25.839Z,88.42
2022-10-13T08:36:56.417Z,88.91
2022-10-13T08:39:25.481Z,84.89
2022-10-13T08:41:59.964Z,83.73
2022-10-13T08:47:46.964Z,79.35
2022-10-13T08:50:19.299Z,76.61
2022-10-13T08:52:52.875Z,78.04
2022-10-13T08:55:28.217Z,74.63
2022-10-13T08:57:56.702Z,73.14
2022-10-13T09:00:28.705Z,74.65
2022-10-13T09:03:16.196Z,73.37
2022-10-13T09:05:58.418Z,72.72
2022-10-13T09:08:31.245Z,68.52
2022-10-13T09:10:59.779Z,68.49
2022-10-13T09:13:27.778Z,64.18
2022-10-13T09:15:56.594Z,64.74
2022-10-13T09:18:32.541Z,61.50
2022-10-13T09:21:30.306Z,60.75
2022-10-13T09:24:07.340Z,60.13
2022-10-13T09:26:40.126Z,57.12
2022-10-13T09:29:12.350Z,61.55
2022-10-13T09:31:40.351Z,57.00
2022-10-13T09:34:19.251Z,57.30
2022-10-13T09:36:59.559Z,56.44
2022-10-13T09:39:28.470Z,55.08
2022-10-13T09:42:20.271Z,57.48
2022-10-13T09:45:01.488Z,55.76
2022-10-13T09:47:33.177Z,56.90
2022-10-13T09:50:16.332Z,56.75
2022-10-13T09:52:48.145Z,55.69
2022-10-13T09:55:32.785Z,56.15
2022-10-13T09:58:15.332Z,55.36
2022-10-13T10:00:46.698Z,55.87
2022-10-13T10:03:24.381Z,55.08
2022-10-13T10:05:57.128Z,54.61
2022-10-13T10:09:05.037Z,55.61
2022-10-13T10:11:46.215Z,57.42
2022-10-13T10:14:23.986Z,56.99
2022-10-13T10:16:57.663Z,54.40
2022-10-13T10:19:48.186Z,54.44
2022-10-13T10:22:36.124Z,56.54
2022-10-13T10:25:33.330Z,56.87
2022-10-13T10:28:32.724Z,54.86
2022-10-13T10:31:25.975Z,54.27
2022-10-13T10:34:46.890Z,57.83
2022-10-13T10:37:54.622Z,56.34
2022-10-13T10:40:22.965Z,57.50
2022-10-13T10:43:43.104Z,55.51
2022-10-13T10:46:23.290Z,56.49
2022-10-13T10:48:55.170Z,55.76
2022-10-13T10:51:32.055Z,56.61
2022-10-13T10:54:27.492Z,57.96
2022-10-13T10:57:28.589Z,55.05
2022-10-13T11:00:11.505Z,57.73
2022-10-13T11:02:49.180Z,58.71
2022-10-13T11:05:17.879Z,55.25
2022-10-13T11:07:46.516Z,57.20
2022-10-13T11:10:16.518Z,57.37
2022-10-13T11:12:50.970Z,56.46
2022-10-13T11:15:43.162Z,58.00
2022-10-13T11:19:05.501Z,58.47
2022-10-13T11:21:55.639Z,55.82
2022-10-13T11:24:38.854Z,56.65
2022-10-13T11:27:07.919Z,57.37
2022-10-13T11:29:54.954Z,59.83
2022-10-13T11:32:26.133Z,56.51
2022-10-13T11:35:07.882Z,57.12
2022-10-13T11:37:36.074Z,58.41
2022-10-13T11:40:24.072Z,58.72
2022-10-13T11:43:04.974Z,59.95
2022-10-13T11:45:55.020Z,57.18
2022-10-13T11:49:04.172Z,57.14
2022-10-13T11:52:00.224Z,59.48
2022-10-13T11:54:35.665Z,58.26
2022-10-13T11:57:27.591Z,58.59
2022-10-13T11:59:57.552Z,60.64
2022-10-13T12:02:30.106Z,60.43
2022-10-13T12:05:19.080Z,60.51
2022-10-13T12:07:49.379Z,60.76
2022-10-13T12:10:32.926Z,59.88
2022-10-13T12:13:02.332Z,59.94
2022-10-13T12:15:43.767Z,61.14
2022-10-13T12:18:22.612Z,59.96
2022-10-13T12:20:57.265Z,58.03
2022-10-13T12:23:29.135Z,57.82
2022-10-13T12:25:58.939Z,59.73
2022-10-13T12:28:49.244Z,60.38
2022-10-13T12:31:24.401Z,60.56
2022-10-13T12:33:59.444Z,60.45
2022-10-13T12:36:32.206Z,62.07
2022-10-13T12:39:13.826Z,62.18
2022-10-13T12:41:45.973Z,61.80
2022-10-13T12:44:21.223Z,61.83
2022-10-13T12:46:56.346Z,59.30
2022-10-13T12:49:28.457Z,57.55
2022-10-13T12:52:16.062Z,59.25
2022-10-13T12:54:50.368Z,58.25
2022-10-13T12:57:36.267Z,58.95
2022-10-13T13:00:26.685Z,58.71
2022-10-13T13:03:02.041Z,59.99
2022-10-13T13:05:31.425Z,59.58
2022-10-13T13:08:06.147Z,60.13
2022-10-13T13:10:35.158Z,61.52
2022-10-13T13:13:14.538Z,57.96
2022-10-13T13:15:42.806Z,57.84
2022-10-13T13:18:26.575Z,58.56
2022-10-13T13:20:55.113Z,59.39
2022-10-13T13:23:24.215Z,58.76
2022-10-13T13:26:18.033Z,58.81
2022-10-13T13:28:52.004Z,59.57
2022-10-13T13:31:22.863Z,58.21
2022-10-13T13:33:52.003Z,59.98
2022-10-13T13:36:22.598Z,59.03
2022-10-13T13:38:54.105Z,58.18
2022-10-13T13:41:22.558Z,59.12
2022-10-13T13:43:50.652Z,57.35
2022-10-13T13:46:27.844Z,56.11
2022-10-13T13:48:55.930Z,57.42
2022-10-13T13:51:24.572Z,58.80
2022-10-13T13:53:53.424Z,59.76
2022-10-13T13:56:21.452Z,60.58
2022-10-13T13:58:49.882Z,61.53
2022-10-13T14:01:18.329Z,58.16
2022-10-13T14:03:47.034Z,58.55
2022-10-13T14:06:18.960Z,58.51
2022-10-13T14:08:47.763Z,58.55
2022-10-13T14:11:15.772Z,56.96
2022-10-13T14:13:43.859Z,58.07
2022-10-13T14:16:17.285Z,58.75
2022-10-13T14:18:45.453Z,60.06
2022-10-13T14:21:13.878Z,61.12
2022-10-13T14:23:46.969Z,58.52
2022-10-13T14:26:18.301Z,57.83
2022-10-13T14:28:46.458Z,58.41
2022-10-13T14:31:14.660Z,57.76
2022-10-13T14:33:44.050Z,58.45
2022-10-13T14:36:14.757Z,59.17
2022-10-13T14:38:43.026Z,59.19
2022-10-13T14:41:11.788Z,58.74
2022-10-13T14:43:40.011Z,59.26
2022-10-13T14:46:08.209Z,59.00
2022-10-13T14:48:37.528Z,59.75
2022-10-13T14:51:10.624Z,61.44
2022-10-13T14:53:41.571Z,59.20
2022-10-13T14:56:27.194Z,60.01
2022-10-13T14:58:59.702Z,59.63
2022-10-13T15:01:29.852Z,60.54
2022-10-13T15:03:58.361Z,61.34
2022-10-13T15:06:27.131Z,61.97
2022-10-13T15:08:55.975Z,62.48
2022-10-13T15:11:26.342Z,62.06
2022-10-13T15:13:54.484Z,62.68
2022-10-13T15:16:25.090Z,62.96
2022-10-13T15:18:53.781Z,63.72
2022-10-13T15:21:22.278Z,69.04
2022-10-13T15:23:50.557Z,69.33
2022-10-13T15:26:20.655Z,70.48
2022-10-13T15:28:51.606Z,71.97
2022-10-13T15:31:22.046Z,72.63
2022-10-13T15:33:52.885Z,73.77
2022-10-13T15:36:23.265Z,73.87
2022-10-13T15:38:51.757Z,74.52
2022-10-13T15:41:21.446Z,75.45
2022-10-13T15:43:49.926Z,75.93
2022-10-13T15:46:21.704Z,76.92
2022-10-13T15:48:55.307Z,77.72
2022-10-13T15:51:24.381Z,76.87
2022-10-13T15:53:52.781Z,77.25
2022-10-13T15:56:20.873Z,76.16
2022-10-13T15:58:48.987Z,77.57
2022-10-13T16:01:18.837Z,77.17
2022-10-13T16:03:47.422Z,76.63
2022-10-13T16:06:15.696Z,77.30
2022-10-13T16:08:44.319Z,78.57
2022-10-13T16:11:15.842Z,79.14
2022-10-13T16:13:48.770Z,79.77
2022-10-13T16:16:18.180Z,78.92
2022-10-13T16:18:46.525Z,80.53
2022-10-13T16:21:20.611Z,79.96
2022-10-13T16:23:49.908Z,79.93
2022-10-13T16:26:18.623Z,81.04
2022-10-13T16:28:47.411Z,81.19
2022-10-13T16:31:17.230Z,81.63
2022-10-13T16:33:46.006Z,81.61
2022-10-13T16:36:19.204Z,82.26
2022-10-13T16:38:48.639Z,82.30
2022-10-13T16:41:18.548Z,82.93
2022-10-13T16:43:48.168Z,82.62
2022-10-13T16:46:19.215Z,83.65
2022-10-13T16:48:48.016Z,84.31
2022-10-13T16:51:19.893Z,84.22
2022-10-13T16:53:49.748Z,85.04
2022-10-13T16:56:22.332Z,85.22
2022-10-13T16:58:55.397Z,84.79
2022-10-13T17:01:25.484Z,85.34
2022-10-13T17:03:54.301Z,84.88
2022-10-13T17:06:24.465Z,84.75
2022-10-13T17:08:57.844Z,84.96
2022-10-13T17:11:31.398Z,85.09
2022-10-13T17:14:00.937Z,84.54
2022-10-13T17:16:32.208Z,84.61
2022-10-13T17:19:00.706Z,85.17
2022-10-13T17:21:31.765Z,86.18
2022-10-13T17:23:59.837Z,85.39
2022-10-13T17:26:28.469Z,85.68
2022-10-13T17:28:56.719Z,87.17
2022-10-13T17:31:25.193Z,87.13
2022-10-13T17:33:54.642Z,88.12
2022-10-13T17:36:28.088Z,88.72
2022-10-13T17:38:56.702Z,89.27
2022-10-13T17:41:25.107Z,89.82
2022-10-13T17:43:53.270Z,90.40
2022-10-13T17:46:42.588Z,90.36
2022-10-13T17:49:11.996Z,90.44
2022-10-13T17:51:41.676Z,90.97
2022-10-13T17:54:15.617Z,90.84
2022-10-13T17:56:46.599Z,91.44
2022-10-13T17:59:16.244Z,90.83
2022-10-13T18:01:45.198Z,90.51
2022-10-13T18:04:17.583Z,90.73
2022-10-13T18:06:46.139Z,91.68
2022-10-13T18:09:19.128Z,91.29
2022-10-13T18:11:50.557Z,91.70
2022-10-13T18:14:24.997Z,90.95
2022-10-13T18:16:53.805Z,92.10
2022-10-13T18:19:22.610Z,93.58
2022-10-13T18:21:53.005Z,94.84
2022-10-13T18:24:21.380Z,94.75
2022-10-13T18:26:49.640Z,95.58
2022-10-13T18:29:17.908Z,95.27
2022-10-13T18:31:46.698Z,95.09
2022-10-13T18:34:17.009Z,94.82
2022-10-13T18:36:47.761Z,94.46
2022-10-13T18:39:18.023Z,95.01
2022-10-13T18:41:50.449Z,95.53
2022-10-13T18:44:19.965Z,95.98
2022-10-13T18:46:52.859Z,96.10
2022-10-13T18:49:31.064Z,96.12
2022-10-13T18:52:01.379Z,95.92
2022-10-13T18:54:30.212Z,96.48
2022-10-13T18:56:58.714Z,96.96
2022-10-13T18:59:28.414Z,96.71
2022-10-13T19:01:56.845Z,96.46
2022-10-13T19:04:26.287Z,96.03
2022-10-13T19:06:55.558Z,95.65
2022-10-13T19:09:25.534Z,96.18
2022-10-13T19:11:57.308Z,97.14
2022-10-13T19:14:27.778Z,96.17
2022-10-13T19:17:01.596Z,97.10
2022-10-13T19:19:30.889Z,97.02
2022-10-13T19:22:01.511Z,95.87
2022-10-13T19:24:29.846Z,97.11
2022-10-13T19:26:58.576Z,97.09
2022-10-13T19:29:26.745Z,97.11
2022-10-13T19:31:54.787Z,97.02
2022-10-13T19:34:23.298Z,96.71
2022-10-13T19:36:51.643Z,95.68
2022-10-13T19:39:23.911Z,95.92
2022-10-13T19:41:54.996Z,95.61
2022-10-13T19:44:24.942Z,96.64
2022-10-13T19:46:53.993Z,96.89
2022-10-13T19:49:26.148Z,96.80
2022-10-13T19:51:54.928Z,97.60
2022-10-13T19:54:23.809Z,98.51
2022-10-13T19:56:52.521Z,97.90
2022-10-13T19:59:21.524Z,98.09
2022-10-13T20:01:49.666Z,99.79
2022-10-13T20:04:20.713Z,100.00
2022-10-13T20:06:50.399Z,99.90
2022-10-13T20:09:20.328Z,100.00
2022-10-13T20:11:50.419Z,99.85
2022-10-13T20:14:19.412Z,99.71
2022-10-13T20:16:48.403Z,99.62
2022-10-13T20:19:19.692Z,98.66
2022-10-13T20:21:51.693Z,98.31
2022-10-13T20:24:22.072Z,100.00
2022-10-13T20:26:53.448Z,100.00
2022-10-13T20:29:23.445Z,100.00
2022-10-13T20:31:51.793Z,100.00
2022-10-13T20:34:20.416Z,100.00
2022-10-13T20:36:51.224Z,100.00
2022-10-13T20:39:20.240Z,100.00
2022-10-13T20:41:48.524Z,100.00
2022-10-13T20:44:16.593Z,100.00
2022-10-13T20:46:45.413Z,100.00
2022-10-13T20:49:13.873Z,100.00
2022-10-13T20:51:43.157Z,100.00
2022-10-13T20:54:13.965Z,99.72
2022-10-13T20:56:42.931Z,100.00
2022-10-13T20:59:14.790Z,100.00
2022-10-13T21:01:43.477Z,100.00
2022-10-13T21:04:11.788Z,100.00
2022-10-13T21:06:41.865Z,100.00
2022-10-13T21:09:10.891Z,99.61
2022-10-13T21:11:40.180Z,99.30
2022-10-13T21:14:09.871Z,99.43
2022-10-13T21:16:38.869Z,99.67
2022-10-13T21:19:09.780Z,98.88
2022-10-13T21:21:38.586Z,98.61
2022-10-13T21:24:08.128Z,98.56
2022-10-13T21:26:37.253Z,99.54
2022-10-13T21:29:05.833Z,99.69
2022-10-13T21:31:36.309Z,99.50
2022-10-13T21:34:04.760Z,99.06
2022-10-13T21:36:33.693Z,99.69
2022-10-13T21:39:06.046Z,100.00
2022-10-13T21:41:34.581Z,99.55
2022-10-13T21:44:03.419Z,99.54
2022-10-13T21:46:35.116Z,98.84
2022-10-13T21:49:05.847Z,98.45
2022-10-13T21:51:38.163Z,99.70
2022-10-13T21:54:12.679Z,100.00
2022-10-13T21:56:41.790Z,100.00
2022-10-13T21:59:12.745Z,100.00
2022-10-13T22:01:41.811Z,100.00
2022-10-13T22:04:14.337Z,100.00
2022-10-13T22:06:43.104Z,100.00
2022-10-13T22:09:11.561Z,100.00
2022-10-13T22:11:40.092Z,100.00
2022-10-13T22:14:12.361Z,100.00
2022-10-13T22:16:51.566Z,100.00
2022-10-13T22:19:22.761Z,100.00
2022-10-13T22:21:51.282Z,100.00
2022-10-13T22:24:21.311Z,100.00
2022-10-13T22:26:51.010Z,100.00
2022-10-13T22:29:21.298Z,100.00
2022-10-13T22:31:50.406Z,100.00
2022-10-13T22:34:18.778Z,100.00
2022-10-13T22:36:47.419Z,100.00
2022-10-13T22:39:15.633Z,100.00
2022-10-13T22:41:44.462Z,100.00
2022-10-13T22:44:13.538Z,100.00
2022-10-13T22:46:41.907Z,100.00
2022-10-13T22:49:15.025Z,100.00
2022-10-13T22:51:45.665Z,100.00
2022-10-13T22:54:14.000Z,100.00
2022-10-13T22:56:42.592Z,100.00
2022-10-13T22:59:11.974Z,100.00
2022-10-13T23:01:40.621Z,100.00
2022-10-13T23:04:09.130Z,100.00
2022-10-13T23:06:37.410Z,100.00
2022-10-13T23:09:09.439Z,100.00
2022-10-13T23:11:38.274Z,100.00
2022-10-13T23:14:07.344Z,100.00
2022-10-13T23:16:35.731Z,100.00
2022-10-13T23:19:03.958Z,100.00
2022-10-13T23:21:32.409Z,100.00
2022-10-13T23:24:07.014Z,100.00
2022-10-13T23:26:35.477Z,100.00
2022-10-13T23:29:04.549Z,100.00
2022-10-13T23:31:33.386Z,100.00
2022-10-13T23:34:01.958Z,100.00
2022-10-13T23:36:31.798Z,100.00
2022-10-13T23:39:06.576Z,100.00
2022-10-13T23:41:35.242Z,100.00
2022-10-13T23:44:03.790Z,100.00
2022-10-13T23:46:32.178Z,100.00
2022-10-13T23:49:00.569Z,100.00
2022-10-13T23:51:28.737Z,100.00
2022-10-13T23:53:58.642Z,100.00
2022-10-13T23:56:27.106Z,100.00
2022-10-13T23:58:55.492Z,100.00
